Forside
METAR-TAF:

METAR-TAF

Lufthavne :

Aalborg Lufthavn

Aalborg, Danmark

Breddekreds: 57-06N, længdekreds: 009-51E, højde: 3 m

Aktuelle vejr

Denne rapport blev lavet for 26 minutter siden, kl. 15:20 UTC
Vind 11 kt fra vestsydvest
Temperatur 15°C
Fugtighed 51%
Tryk 1021 hPa
Sigt 10 km eller mere
ingen skyer under 1500m og ingen cumulonimbus

METAR: EKYT 081520Z 24011KT CAVOK 15/05 Q1021

Tid: 17:46 (15:46 UTC)

Vejrudsigter

Denne rapport blev lavet for 1 time og 37 minutter siden, kl. 14:09 UTC
Foreløbig gælder fra 08 på 15 UTC til 09 på 15 UTC
Vind 14 kt fra vestsydvest
Sigt 10 km eller mere
Nogle få skyer i en højde af 20000 ft
ændring
fra 08 på 23 UTC til 09 på 02 UTC
Vind 12 kt fra vestnordvest
Midlertidig
fra 09 på 00 UTC til 09 på 03 UTC
Sigt: 6000 m
Brudte skyer i en højde af 800 ft
let regn, finregn
Midlertidig
fra 09 på 07 UTC til 09 på 15 UTC
Vind 18 kt fra nordvest med vindstød på up til 28 kt

TAF: EKYT 081409Z 0815/0915 24014KT 9999 FEW200 BECMG 0823/0902 30012KT TEMPO 0900/0903 6000 -RADZ BKN008 TEMPO 0907/0915 31018G28KT

Vejrobservationer og prognoser fra mere end 4000 lufthavne (METAR og TAF).

De gule og røde prikker repræsenterer de meteorologiske stationer.

Flyt musen over at se navnet på stationen.

Så klik over at se vejr observationer og prognoser.

At skifte det kort: Klik på de grønne knapper med et sort kors for at zoome ind; på den grønne knap med en bindestreg for at zoome ud; eller på de grønne pile for tilstødende kort.


METAR-TAF: